createdAt,value
2022-11-21T00:10:21.302Z,9.34
2022-11-21T00:22:21.850Z,9.34
2022-11-21T00:34:21.199Z,9.34
2022-11-21T00:46:21.194Z,9.34
2022-11-21T00:58:21.287Z,9.33
2022-11-21T01:10:21.293Z,9.33
2022-11-21T01:22:21.192Z,9.33
2022-11-21T01:34:21.308Z,9.32
2022-11-21T01:46:21.198Z,9.32
2022-11-21T01:58:21.262Z,9.32
2022-11-21T02:10:21.190Z,9.32
2022-11-21T02:22:21.195Z,9.32
2022-11-21T02:34:21.303Z,9.32
2022-11-21T02:46:21.198Z,9.32
2022-11-21T02:58:21.188Z,9.31
2022-11-21T03:10:21.280Z,9.31
2022-11-21T03:22:21.303Z,9.31
2022-11-21T03:34:21.271Z,9.31
2022-11-21T03:46:21.190Z,9.30
2022-11-21T03:58:21.306Z,9.30
2022-11-21T04:10:21.292Z,9.30
2022-11-21T04:22:21.276Z,9.30
2022-11-21T04:34:21.310Z,9.30
2022-11-21T04:46:21.193Z,9.29
2022-11-21T04:58:21.299Z,9.29
2022-11-21T05:10:21.277Z,9.29
2022-11-21T05:22:21.311Z,9.28
2022-11-21T05:34:21.205Z,9.28
2022-11-21T05:46:21.195Z,9.28
2022-11-21T05:58:21.275Z,9.28
2022-11-21T06:10:21.247Z,9.28
2022-11-21T06:22:21.287Z,9.27
2022-11-21T06:34:21.247Z,9.27
2022-11-21T06:46:21.189Z,9.27
2022-11-21T06:58:21.304Z,9.27
2022-11-21T07:10:21.209Z,9.27
2022-11-21T07:22:21.255Z,9.27
2022-11-21T07:34:21.298Z,9.27
2022-11-21T07:46:21.193Z,9.26
2022-11-21T07:58:21.289Z,9.27
2022-11-21T08:10:21.251Z,9.27
2022-11-21T08:22:21.192Z,9.27
2022-11-21T08:34:21.289Z,9.26
2022-11-21T08:46:21.199Z,9.26
2022-11-21T08:58:21.197Z,9.26
2022-11-21T09:10:21.301Z,9.42
2022-11-21T09:22:21.272Z,9.62
2022-11-21T09:34:21.217Z,9.64
2022-11-21T09:46:21.208Z,9.79
2022-11-21T09:58:21.267Z,9.74
2022-11-21T10:10:21.304Z,9.81
2022-11-21T10:22:21.200Z,10.01
2022-11-21T10:34:21.258Z,9.96
2022-11-21T10:46:21.363Z,9.91
2022-11-21T10:58:21.302Z,9.91
2022-11-21T11:10:26.958Z,9.89
2022-11-21T11:22:21.250Z,9.92
2022-11-21T11:34:21.224Z,9.93
2022-11-21T11:46:21.189Z,10.03
2022-11-21T11:58:21.195Z,10.08
2022-11-21T12:10:21.260Z,10.07
2022-11-21T12:22:21.314Z,10.36
2022-11-21T12:34:21.287Z,10.62
2022-11-21T12:46:21.194Z,10.64
2022-11-21T12:58:21.195Z,10.77
2022-11-21T13:10:21.314Z,10.77
2022-11-21T13:22:21.280Z,10.73
2022-11-21T13:34:21.398Z,10.77
2022-11-21T13:46:21.192Z,10.78
2022-11-21T13:58:21.282Z,10.77
2022-11-21T14:10:21.285Z,10.76
2022-11-21T14:22:21.200Z,10.78
2022-11-21T14:34:21.195Z,10.77
2022-11-21T14:46:21.195Z,10.75
2022-11-21T14:58:21.396Z,10.74
2022-11-21T15:10:30.183Z,10.73
2022-11-21T15:22:21.205Z,10.71
2022-11-21T15:34:35.399Z,10.70
2022-11-21T15:46:21.191Z,10.68
2022-11-21T15:58:21.192Z,10.67
2022-11-21T16:10:26.207Z,10.67
2022-11-21T16:22:21.191Z,10.66
2022-11-21T16:34:21.259Z,10.64
2022-11-21T16:46:21.201Z,10.63
2022-11-21T16:58:21.310Z,10.62
2022-11-21T17:10:21.194Z,10.62
2022-11-21T17:22:24.600Z,10.60
2022-11-21T17:34:22.498Z,10.59
2022-11-21T17:46:21.203Z,10.58
2022-11-21T17:58:21.310Z,10.57
2022-11-21T18:10:42.343Z,10.56
2022-11-21T18:22:26.293Z,10.55
2022-11-21T18:34:21.313Z,10.54
2022-11-21T18:46:21.254Z,10.52
2022-11-21T18:58:21.202Z,10.51
2022-11-21T19:10:41.966Z,10.50
2022-11-21T19:22:21.308Z,10.49
2022-11-21T19:34:21.211Z,10.48
2022-11-21T19:46:21.197Z,10.46
2022-11-21T19:58:21.296Z,10.45
2022-11-21T20:10:21.303Z,10.44
2022-11-21T20:22:21.194Z,10.43
2022-11-21T20:34:21.214Z,10.42
2022-11-21T20:46:21.444Z,10.41
2022-11-21T20:58:21.191Z,10.40
2022-11-21T21:10:21.293Z,10.39
2022-11-21T21:22:21.247Z,10.38
2022-11-21T21:34:21.312Z,10.37
2022-11-21T21:46:21.191Z,10.36
2022-11-21T21:58:21.204Z,10.35
2022-11-21T22:10:21.279Z,10.34
2022-11-21T22:22:21.196Z,10.32
2022-11-21T22:34:21.192Z,10.32
2022-11-21T22:46:21.206Z,10.32
2022-11-21T22:58:21.250Z,10.29
2022-11-21T23:10:21.360Z,10.30
2022-11-21T23:22:21.188Z,10.28
2022-11-21T23:34:21.201Z,10.27
2022-11-21T23:46:21.196Z,10.24
2022-11-21T23:58:21.310Z,10.22
